createdAt,value
2023-01-11T00:01:55.311Z,40.55
2023-01-11T00:03:58.212Z,38.15
2023-01-11T00:06:01.614Z,31.13
2023-01-11T00:08:06.407Z,35.15
2023-01-11T00:10:10.490Z,32.15
2023-01-11T00:12:14.611Z,39.60
2023-01-11T00:14:17.572Z,35.95
2023-01-11T00:16:20.416Z,31.77
2023-01-11T00:18:23.449Z,32.55
2023-01-11T00:20:26.456Z,31.48
2023-01-11T00:22:29.316Z,31.08
2023-01-11T00:24:33.672Z,29.88
2023-01-11T00:26:36.561Z,35.60
2023-01-11T00:28:39.502Z,29.75
2023-01-11T00:30:42.459Z,30.17
2023-01-11T00:32:45.318Z,26.98
2023-01-11T00:34:48.250Z,31.75
2023-01-11T00:36:52.080Z,32.33
2023-01-11T00:38:55.771Z,30.15
2023-01-11T00:41:20.052Z,35.53
2023-01-11T00:43:41.611Z,36.72
2023-01-11T00:46:03.390Z,34.03
2023-01-11T00:48:07.487Z,29.30
2023-01-11T00:50:11.320Z,30.20
2023-01-11T00:52:14.294Z,33.58
2023-01-11T00:54:17.250Z,31.00
2023-01-11T00:56:21.809Z,31.17
2023-01-11T00:58:24.656Z,25.52
2023-01-11T01:00:28.653Z,31.45
2023-01-11T01:02:32.832Z,27.98
2023-01-11T01:04:35.970Z,30.63
2023-01-11T01:06:38.864Z,32.60
2023-01-11T01:08:41.781Z,30.52
2023-01-11T01:10:44.690Z,31.88
2023-01-11T01:13:07.788Z,30.38
2023-01-11T01:15:11.567Z,35.13
2023-01-11T01:17:14.531Z,31.73
2023-01-11T01:19:17.530Z,31.17
2023-01-11T01:21:20.607Z,27.83
2023-01-11T01:23:23.514Z,25.77
2023-01-11T01:25:26.362Z,29.75
2023-01-11T01:27:29.183Z,35.30
2023-01-11T01:29:33.643Z,30.98
2023-01-11T01:31:36.552Z,24.17
2023-01-11T01:33:39.980Z,27.95
2023-01-11T01:35:42.811Z,26.15
2023-01-11T01:37:45.810Z,25.17
2023-01-11T01:39:48.708Z,27.23
2023-01-11T01:41:51.555Z,23.67
2023-01-11T01:43:57.739Z,30.00
2023-01-11T01:46:02.302Z,28.15
2023-01-11T01:48:07.093Z,26.15
2023-01-11T01:50:14.213Z,29.15
2023-01-11T01:52:17.579Z,24.60
2023-01-11T01:54:23.950Z,26.25
2023-01-11T01:56:30.955Z,27.50
2023-01-11T01:58:36.880Z,24.25
2023-01-11T02:00:40.691Z,31.45
2023-01-11T02:02:45.516Z,21.20
2023-01-11T02:04:48.915Z,24.77
2023-01-11T02:06:55.691Z,24.45
2023-01-11T02:09:02.648Z,21.23
2023-01-11T02:11:25.693Z,25.80
2023-01-11T02:13:29.010Z,25.52
2023-01-11T02:15:32.172Z,22.85
2023-01-11T02:17:35.013Z,29.35
2023-01-11T02:19:52.678Z,25.88
2023-01-11T02:22:22.601Z,26.77
2023-01-11T02:24:41.790Z,21.17
2023-01-11T02:27:16.041Z,25.88
2023-01-11T02:29:29.581Z,26.23
2023-01-11T02:31:35.689Z,26.27
2023-01-11T02:33:43.660Z,23.10
2023-01-11T02:35:52.995Z,19.88
2023-01-11T02:38:03.897Z,27.20
2023-01-11T02:40:12.172Z,24.23
2023-01-11T02:42:40.510Z,26.15
2023-01-11T02:45:03.251Z,21.98
2023-01-11T02:47:09.369Z,25.02
2023-01-11T02:49:17.492Z,24.08
2023-01-11T02:51:24.569Z,25.13
2023-01-11T02:53:31.612Z,23.13
2023-01-11T02:55:38.781Z,24.60
2023-01-11T02:57:43.090Z,22.77
2023-01-11T02:59:49.450Z,23.30
2023-01-11T03:01:53.682Z,23.83
2023-01-11T03:03:56.789Z,26.67
2023-01-11T03:06:04.025Z,24.95
2023-01-11T03:08:28.031Z,25.52
2023-01-11T03:10:39.010Z,26.00
2023-01-11T03:12:57.532Z,27.23
2023-01-11T03:15:07.032Z,27.30
2023-01-11T03:17:18.889Z,24.27
2023-01-11T03:19:27.932Z,25.85
2023-01-11T03:21:50.776Z,24.73
2023-01-11T03:24:01.760Z,18.85
2023-01-11T03:26:12.294Z,22.73
2023-01-11T03:28:19.210Z,22.77
2023-01-11T03:30:29.009Z,24.30
2023-01-11T03:32:36.734Z,21.88
2023-01-11T03:34:46.330Z,22.00
2023-01-11T03:36:51.650Z,24.77
2023-01-11T03:38:57.049Z,27.27
2023-01-11T03:41:04.933Z,28.15
2023-01-11T03:43:12.846Z,28.33
2023-01-11T03:45:16.075Z,23.70
2023-01-11T03:47:24.052Z,24.17
2023-01-11T03:49:30.171Z,22.33
2023-01-11T03:51:35.923Z,23.13
2023-01-11T03:53:40.366Z,24.98
2023-01-11T03:55:45.358Z,20.05
2023-01-11T03:57:51.780Z,28.25
2023-01-11T03:59:54.796Z,22.58
2023-01-11T04:01:57.983Z,20.77
2023-01-11T04:04:02.381Z,21.55
2023-01-11T04:06:05.904Z,21.88
2023-01-11T04:08:08.853Z,24.95
2023-01-11T04:10:12.361Z,24.70
2023-01-11T04:12:15.330Z,27.33
2023-01-11T04:14:18.112Z,26.05
2023-01-11T04:16:21.136Z,27.60
2023-01-11T04:18:24.090Z,21.52
2023-01-11T04:20:28.528Z,21.23
2023-01-11T04:22:31.490Z,24.75
2023-01-11T04:24:34.500Z,23.42
2023-01-11T04:26:37.498Z,22.70
2023-01-11T04:28:40.490Z,25.88
2023-01-11T04:30:43.666Z,22.60
2023-01-11T04:32:46.621Z,30.50
2023-01-11T04:34:50.885Z,28.83
2023-01-11T04:36:55.417Z,21.77
2023-01-11T04:38:58.528Z,20.88
2023-01-11T04:41:23.366Z,22.80
2023-01-11T04:43:26.370Z,22.23
2023-01-11T04:45:29.838Z,22.38
2023-01-11T04:47:33.232Z,22.08
2023-01-11T04:49:36.154Z,26.75
2023-01-11T04:51:39.051Z,24.77
2023-01-11T04:53:43.631Z,27.42
2023-01-11T04:55:46.891Z,23.00
2023-01-11T04:57:49.807Z,24.20
2023-01-11T04:59:52.720Z,24.20
2023-01-11T05:01:55.631Z,23.27
2023-01-11T05:03:58.478Z,31.70
2023-01-11T05:06:02.281Z,33.75
2023-01-11T05:08:05.171Z,20.88
2023-01-11T05:10:10.972Z,25.38
2023-01-11T05:12:13.856Z,22.40
2023-01-11T05:14:17.208Z,26.52
2023-01-11T05:16:21.655Z,26.70
2023-01-11T05:18:24.651Z,23.92
2023-01-11T05:20:27.637Z,23.30
2023-01-11T05:22:30.550Z,22.30
2023-01-11T05:24:33.497Z,23.02
2023-01-11T05:26:39.171Z,28.20
2023-01-11T05:30:44.700Z,24.70
2023-01-11T05:32:47.547Z,23.48
2023-01-11T05:34:50.491Z,21.75
2023-01-11T05:36:53.454Z,23.75
2023-01-11T05:38:57.217Z,25.27
2023-01-11T05:41:01.939Z,21.73
2023-01-11T05:43:06.455Z,21.70
2023-01-11T05:45:28.605Z,25.52
2023-01-11T05:47:31.700Z,22.67
2023-01-11T05:49:34.851Z,23.98
2023-01-11T05:51:40.942Z,24.35
2023-01-11T05:53:43.991Z,25.77
2023-01-11T05:55:53.968Z,24.60
2023-01-11T05:57:56.852Z,27.63
2023-01-11T06:00:01.229Z,23.08
2023-01-11T06:02:09.368Z,28.92
2023-01-11T06:04:12.336Z,24.13
2023-01-11T06:06:16.166Z,25.25
2023-01-11T06:08:20.051Z,27.30
2023-01-11T06:10:23.010Z,25.00
2023-01-11T06:12:25.849Z,23.00
2023-01-11T06:14:28.722Z,28.27
2023-01-11T06:16:33.193Z,30.88
2023-01-11T06:18:37.720Z,25.65
2023-01-11T06:20:40.781Z,23.38
2023-01-11T06:22:43.653Z,27.70
2023-01-11T06:24:46.612Z,27.10
2023-01-11T06:26:49.510Z,27.95
2023-01-11T06:28:52.420Z,22.30
2023-01-11T06:30:56.201Z,24.80
2023-01-11T06:33:06.210Z,26.55
2023-01-11T06:35:09.542Z,28.92
2023-01-11T06:37:12.491Z,22.58
2023-01-11T06:39:15.423Z,32.03
2023-01-11T06:41:18.390Z,30.52
2023-01-11T06:43:22.051Z,30.58
2023-01-11T06:45:25.010Z,27.33
2023-01-11T06:47:27.969Z,28.73
2023-01-11T06:49:32.422Z,31.60
2023-01-11T06:51:35.414Z,29.23
2023-01-11T06:53:39.055Z,33.35
2023-01-11T06:55:42.207Z,33.22
2023-01-11T06:57:45.121Z,32.58
2023-01-11T06:59:48.152Z,36.15
2023-01-11T07:01:51.368Z,35.65
2023-01-11T07:03:54.251Z,38.85
2023-01-11T07:05:59.170Z,36.33
2023-01-11T07:08:02.652Z,38.88
2023-01-11T07:10:08.210Z,37.55
2023-01-11T07:12:11.094Z,37.00
2023-01-11T07:14:20.088Z,40.40
2023-01-11T07:16:22.994Z,41.70
2023-01-11T07:18:26.108Z,43.63
2023-01-11T07:20:29.729Z,43.75
2023-01-11T07:22:36.451Z,39.25
2023-01-11T07:24:39.411Z,50.10
2023-01-11T07:26:42.331Z,50.53
2023-01-11T07:28:45.250Z,41.92
2023-01-11T07:30:58.282Z,44.97
2023-01-11T07:33:02.376Z,45.78
2023-01-11T07:35:06.048Z,47.08
2023-01-11T07:37:28.033Z,52.95
2023-01-11T07:39:43.172Z,44.95
2023-01-11T07:42:05.194Z,53.60
2023-01-11T07:44:08.134Z,47.30
2023-01-11T07:46:11.111Z,47.72
2023-01-11T07:48:15.042Z,50.03
2023-01-11T07:50:18.130Z,48.60
2023-01-11T07:52:21.210Z,49.72
2023-01-11T07:54:25.185Z,51.08
2023-01-11T07:56:29.810Z,49.30
2023-01-11T07:58:32.891Z,63.38
2023-01-11T08:00:35.993Z,55.92
2023-01-11T08:02:39.020Z,56.13
2023-01-11T08:04:42.211Z,48.30
2023-01-11T08:06:45.110Z,45.50
2023-01-11T08:08:48.010Z,49.70
2023-01-11T08:11:09.872Z,53.80
2023-01-11T08:13:33.350Z,54.17
2023-01-11T08:15:42.813Z,48.63
2023-01-11T08:17:45.822Z,48.97
2023-01-11T08:19:48.734Z,51.45
2023-01-11T08:21:51.911Z,54.20
2023-01-11T08:23:54.941Z,48.70
2023-01-11T08:25:58.330Z,54.95
2023-01-11T08:28:02.474Z,52.88
2023-01-11T08:30:08.511Z,47.25
2023-01-11T08:32:11.531Z,53.83
2023-01-11T08:34:14.451Z,51.15
2023-01-11T08:36:17.423Z,55.47
2023-01-11T08:38:20.371Z,54.22
2023-01-11T08:40:24.398Z,48.95
2023-01-11T08:42:27.700Z,51.90
2023-01-11T08:44:34.728Z,53.25
2023-01-11T08:46:39.599Z,58.88
2023-01-11T08:48:42.691Z,52.57
2023-01-11T08:50:45.610Z,51.42
2023-01-11T08:52:49.931Z,52.05
2023-01-11T08:54:52.906Z,52.97
2023-01-11T08:56:55.862Z,55.45
2023-01-11T08:58:58.925Z,53.28
2023-01-11T09:01:04.178Z,52.85
2023-01-11T09:03:09.105Z,53.83
2023-01-11T09:05:12.106Z,62.65
2023-01-11T09:07:14.961Z,55.58
2023-01-11T09:09:17.896Z,52.38
2023-01-11T09:11:39.143Z,53.58
2023-01-11T09:13:41.989Z,54.97
2023-01-11T09:15:47.072Z,54.15
2023-01-11T09:17:50.331Z,53.22
2023-01-11T09:19:54.730Z,54.72
2023-01-11T09:21:58.651Z,52.50
2023-01-11T09:24:01.728Z,53.05
2023-01-11T09:26:04.581Z,54.65
2023-01-11T09:28:07.626Z,56.75
2023-01-11T09:30:11.841Z,60.50
2023-01-11T09:32:14.936Z,56.65
2023-01-11T09:34:18.141Z,58.47
2023-01-11T09:36:23.891Z,61.28
2023-01-11T09:40:42.574Z,51.08
2023-01-11T09:42:47.493Z,51.08
2023-01-11T09:44:52.592Z,52.13
2023-01-11T09:47:10.981Z,52.83
2023-01-11T09:49:17.213Z,56.70
2023-01-11T09:51:21.612Z,53.63
2023-01-11T09:53:32.621Z,51.38
2023-01-11T09:55:38.097Z,55.17
2023-01-11T10:00:10.839Z,52.25
2023-01-11T10:02:23.820Z,45.92
2023-01-11T10:04:50.499Z,53.53
2023-01-11T10:18:29.796Z,40.83
2023-01-11T10:18:39.892Z,42.03
2023-01-11T10:19:41.379Z,35.72
2023-01-11T10:21:48.251Z,36.50
2023-01-11T10:23:55.347Z,35.65
2023-01-11T10:26:03.422Z,36.35
2023-01-11T10:28:08.604Z,38.15
2023-01-11T10:30:34.834Z,33.10
2023-01-11T10:32:54.499Z,28.70
2023-01-11T10:35:13.251Z,31.60
2023-01-11T10:37:37.182Z,33.97
2023-01-11T10:40:04.711Z,27.35
2023-01-11T10:42:12.076Z,27.85
2023-01-11T10:44:19.694Z,20.33
2023-01-11T10:46:24.667Z,24.65
2023-01-11T10:48:31.012Z,22.67
2023-01-11T10:50:38.962Z,25.98
2023-01-11T10:52:48.467Z,22.90
2023-01-11T10:54:56.321Z,24.63
2023-01-11T10:57:09.306Z,17.63
2023-01-11T10:59:27.574Z,19.17
2023-01-11T11:01:45.528Z,16.77
2023-01-11T11:04:09.011Z,12.25
2023-01-11T11:06:18.016Z,13.63
2023-01-11T11:08:27.382Z,12.88
2023-01-11T11:10:33.648Z,19.17
2023-01-11T11:12:39.213Z,9.82
2023-01-11T11:14:47.225Z,17.05
2023-01-11T11:16:57.974Z,13.63
2023-01-11T11:19:01.013Z,14.55
2023-01-11T11:21:07.343Z,12.45
2023-01-11T11:23:14.471Z,13.02
2023-01-11T11:25:21.372Z,9.68
2023-01-11T11:27:28.528Z,13.60
2023-01-11T11:29:31.494Z,12.05
2023-01-11T11:31:36.493Z,8.80
2023-01-11T11:33:40.431Z,11.68
2023-01-11T11:35:46.092Z,10.48
2023-01-11T11:37:49.008Z,12.25
2023-01-11T11:39:52.742Z,7.68
2023-01-11T11:41:56.930Z,7.50
2023-01-11T11:44:15.897Z,12.73
2023-01-11T11:46:25.749Z,9.02
2023-01-11T11:48:29.933Z,10.13
2023-01-11T11:50:48.616Z,9.95
2023-01-11T11:52:52.908Z,12.25
2023-01-11T11:54:57.628Z,4.57
2023-01-11T11:57:12.811Z,9.90
2023-01-11T11:59:19.890Z,15.93
2023-01-11T12:01:25.536Z,6.75
2023-01-11T12:03:30.971Z,11.18
2023-01-11T12:05:33.890Z,14.93
2023-01-11T12:07:49.738Z,14.38
2023-01-11T12:10:00.538Z,8.80
2023-01-11T12:12:04.505Z,12.10
2023-01-11T12:14:19.740Z,8.25
2023-01-11T12:16:23.570Z,7.40
2023-01-11T12:18:28.248Z,11.50
2023-01-11T12:20:34.710Z,7.00
2023-01-11T12:22:37.561Z,6.85
2023-01-11T12:24:40.605Z,7.82
2023-01-11T12:26:51.381Z,11.50
2023-01-11T12:29:31.291Z,7.47
2023-01-11T12:31:44.477Z,5.78
2023-01-11T12:33:51.820Z,5.93
2023-01-11T12:35:59.181Z,8.88
2023-01-11T12:38:24.596Z,6.13
2023-01-11T12:40:35.011Z,5.85
2023-01-11T12:42:57.011Z,6.20
2023-01-11T12:45:12.290Z,7.75
2023-01-11T12:47:32.773Z,4.47
2023-01-11T12:49:44.538Z,6.43
2023-01-11T12:52:16.246Z,7.55
2023-01-11T12:54:42.050Z,7.30
2023-01-11T12:56:55.810Z,5.53
2023-01-11T12:59:03.460Z,7.55
2023-01-11T13:01:28.427Z,5.88
2023-01-11T13:03:50.400Z,7.43
2023-01-11T13:05:58.478Z,11.05
2023-01-11T13:08:08.494Z,8.18
2023-01-11T13:10:22.370Z,7.10
2023-01-11T13:12:29.530Z,7.50
2023-01-11T13:14:47.028Z,4.78
2023-01-11T13:16:55.471Z,8.48
2023-01-11T13:19:02.670Z,9.90
2023-01-11T13:21:13.051Z,29.10
2023-01-11T13:23:19.971Z,16.15
2023-01-11T13:25:25.091Z,85.85
2023-01-11T13:27:31.693Z,12.45
2023-01-11T13:29:37.452Z,60.40
2023-01-11T13:31:41.730Z,22.27
2023-01-11T13:33:50.175Z,105.65
2023-01-11T13:35:57.156Z,65.30
2023-01-11T13:38:04.425Z,24.17
2023-01-11T13:40:12.554Z,15.20
2023-01-11T13:42:18.241Z,14.48
2023-01-11T13:46:41.951Z,14.98
2023-01-11T13:48:50.632Z,20.65
2023-01-11T13:50:57.249Z,35.60
2023-01-11T13:53:06.394Z,22.67
2023-01-11T13:55:20.773Z,27.40
2023-01-11T13:57:33.891Z,19.67
2023-01-11T13:59:40.395Z,11.02
2023-01-11T14:01:47.169Z,11.82
2023-01-11T14:03:54.268Z,17.27
2023-01-11T14:06:06.609Z,9.10
2023-01-11T14:08:22.974Z,14.80
2023-01-11T14:10:34.937Z,17.08
2023-01-11T14:12:49.730Z,20.35
2023-01-11T14:15:13.098Z,29.45
2023-01-11T14:17:30.390Z,13.82
2023-01-11T14:19:40.870Z,22.33
2023-01-11T14:22:04.520Z,25.63
2023-01-11T14:24:08.391Z,41.33
2023-01-11T14:26:56.029Z,13.13
2023-01-11T14:29:07.974Z,9.70
2023-01-11T14:31:32.309Z,11.25
2023-01-11T14:34:04.139Z,10.48
2023-01-11T14:36:50.849Z,10.20
2023-01-11T14:39:41.370Z,11.38
2023-01-11T14:42:31.217Z,9.45
2023-01-11T14:44:53.565Z,21.15
2023-01-11T14:47:07.011Z,12.68
2023-01-11T14:49:18.889Z,11.80
2023-01-11T14:51:33.175Z,10.48
2023-01-11T14:53:40.331Z,14.50
2023-01-11T14:55:46.890Z,12.57
2023-01-11T14:58:21.689Z,12.95
2023-01-11T15:00:58.091Z,31.05
2023-01-11T15:03:39.567Z,34.67
2023-01-11T15:05:47.451Z,25.95
2023-01-11T15:07:51.867Z,15.07
2023-01-11T15:09:54.989Z,11.63
2023-01-11T15:12:11.554Z,11.48
2023-01-11T15:14:27.723Z,20.90
2023-01-11T15:18:52.348Z,13.77
2023-01-11T15:20:57.570Z,12.30
2023-01-11T15:23:04.866Z,18.45
2023-01-11T15:25:20.569Z,20.05
2023-01-11T15:27:25.414Z,16.25
2023-01-11T15:29:30.782Z,11.53
2023-01-11T15:31:44.361Z,16.13
2023-01-11T15:33:48.624Z,17.60
2023-01-11T15:36:11.761Z,17.52
2023-01-11T15:38:19.451Z,13.13
2023-01-11T15:40:26.379Z,16.20
2023-01-11T15:43:07.650Z,14.18
2023-01-11T15:45:29.200Z,12.70
2023-01-11T15:47:49.580Z,12.23
2023-01-11T15:50:18.164Z,17.75
2023-01-11T15:53:03.142Z,18.25
2023-01-11T15:55:29.229Z,131.55
2023-01-11T15:57:59.981Z,84.32
2023-01-11T16:00:32.907Z,31.75
2023-01-11T16:02:52.700Z,19.60
2023-01-11T16:05:00.981Z,13.02
2023-01-11T16:07:08.707Z,20.02
2023-01-11T16:09:41.571Z,13.75
2023-01-11T16:11:50.732Z,17.00
2023-01-11T16:14:05.261Z,18.33
2023-01-11T16:16:16.271Z,13.48
2023-01-11T16:18:22.272Z,20.20
2023-01-11T16:20:28.140Z,18.85
2023-01-11T16:22:31.403Z,17.40
2023-01-11T16:24:37.341Z,14.48
2023-01-11T16:26:41.435Z,18.80
2023-01-11T16:28:57.801Z,12.98
2023-01-11T16:31:02.555Z,16.30
2023-01-11T16:33:16.101Z,17.48
2023-01-11T16:35:20.568Z,13.18
2023-01-11T16:37:29.375Z,14.90
2023-01-11T16:39:33.887Z,11.13
2023-01-11T16:41:41.380Z,16.00
2023-01-11T16:43:49.972Z,16.83
2023-01-11T16:45:55.094Z,17.83
2023-01-11T16:48:06.051Z,19.20
2023-01-11T16:50:20.950Z,36.40
2023-01-11T16:52:48.269Z,49.65
2023-01-11T16:54:51.502Z,17.63
2023-01-11T16:56:54.859Z,26.20
2023-01-11T16:59:07.260Z,22.92
2023-01-11T17:01:13.244Z,33.90
2023-01-11T17:03:24.513Z,15.20
2023-01-11T17:05:27.523Z,16.83
2023-01-11T17:07:30.874Z,16.70
2023-01-11T17:09:33.740Z,20.10
2023-01-11T17:11:37.971Z,18.27
2023-01-11T17:14:12.199Z,14.90
2023-01-11T17:16:17.240Z,15.77
2023-01-11T17:18:20.201Z,15.30
2023-01-11T17:20:30.405Z,15.93
2023-01-11T17:22:35.626Z,15.77
2023-01-11T17:24:50.221Z,14.25
2023-01-11T17:26:55.232Z,11.88
2023-01-11T17:28:59.763Z,13.63
2023-01-11T17:31:02.984Z,17.25
2023-01-11T17:33:08.601Z,17.38
2023-01-11T17:35:16.918Z,14.85
2023-01-11T17:37:20.081Z,11.95
2023-01-11T17:39:27.988Z,14.85
2023-01-11T17:41:49.922Z,10.85
2023-01-11T17:44:11.302Z,16.90
2023-01-11T17:46:17.486Z,14.73
2023-01-11T17:48:24.141Z,12.80
2023-01-11T17:50:29.437Z,11.38
2023-01-11T17:52:43.774Z,14.18
2023-01-11T17:55:01.108Z,10.20
2023-01-11T17:57:04.099Z,16.38
2023-01-11T17:59:18.992Z,14.38
2023-01-11T18:01:23.012Z,10.70
2023-01-11T18:03:27.332Z,11.77
2023-01-11T18:05:30.278Z,9.43
2023-01-11T18:07:33.148Z,16.48
2023-01-11T18:09:40.062Z,12.75
2023-01-11T18:11:43.338Z,7.25
2023-01-11T18:13:46.097Z,10.00
2023-01-11T18:15:49.038Z,10.73
2023-01-11T18:17:57.061Z,10.43
2023-01-11T18:20:02.599Z,11.63
2023-01-11T18:22:26.722Z,10.32
2023-01-11T18:24:34.270Z,10.70
2023-01-11T18:26:38.162Z,11.25
2023-01-11T18:28:41.032Z,12.38
2023-01-11T18:30:47.604Z,16.48
2023-01-11T18:32:50.413Z,15.15
2023-01-11T18:34:54.781Z,86.90
2023-01-11T18:37:00.118Z,22.25
2023-01-11T18:39:02.979Z,80.35
2023-01-11T18:41:25.781Z,41.25
2023-01-11T18:43:30.005Z,24.50
2023-01-11T18:45:33.388Z,18.90
2023-01-11T18:47:36.256Z,17.38
2023-01-11T18:49:39.216Z,12.68
2023-01-11T18:51:45.396Z,22.90
2023-01-11T18:53:49.833Z,19.42
2023-01-11T18:55:52.813Z,21.73
2023-01-11T18:57:57.501Z,16.17
2023-01-11T19:00:01.132Z,13.68
2023-01-11T19:02:17.244Z,11.73
2023-01-11T19:04:20.581Z,15.73
2023-01-11T19:06:23.550Z,10.52
2023-01-11T19:08:26.421Z,16.25
2023-01-11T19:10:30.813Z,45.60
2023-01-11T19:12:33.668Z,75.78
2023-01-11T19:14:36.736Z,32.67
2023-01-11T19:16:39.540Z,25.38
2023-01-11T19:18:42.431Z,41.63
2023-01-11T19:20:45.331Z,41.78
2023-01-11T19:22:48.262Z,87.90
2023-01-11T19:24:51.131Z,196.60
2023-01-11T19:26:56.085Z,355.45
2023-01-11T19:28:59.050Z,117.20
2023-01-11T19:31:06.774Z,85.95
2023-01-11T19:33:09.580Z,118.80
2023-01-11T19:35:12.607Z,82.72
2023-01-11T19:37:15.490Z,167.35
2023-01-11T19:39:18.419Z,133.27
2023-01-11T19:41:21.341Z,54.58
2023-01-11T19:43:25.773Z,44.42
2023-01-11T19:45:28.650Z,16.55
2023-01-11T19:47:31.854Z,38.05
2023-01-11T19:49:34.931Z,24.73
2023-01-11T19:51:37.726Z,68.72
2023-01-11T19:53:40.564Z,16.70
2023-01-11T19:55:43.328Z,22.08
2023-01-11T19:57:46.051Z,72.20
2023-01-11T19:59:50.890Z,46.60
2023-01-11T20:01:53.544Z,111.90
2023-01-11T20:03:56.434Z,27.48
2023-01-11T20:06:05.008Z,69.38
2023-01-11T20:08:07.807Z,24.63
2023-01-11T20:10:11.307Z,29.35
2023-01-11T20:12:16.377Z,31.42
2023-01-11T20:14:19.389Z,32.55
2023-01-11T20:16:24.767Z,18.40
2023-01-11T20:18:27.687Z,24.10
2023-01-11T20:20:30.569Z,22.33
2023-01-11T20:22:33.887Z,16.13
2023-01-11T20:24:36.727Z,14.40
2023-01-11T20:26:39.764Z,10.38
2023-01-11T20:28:43.267Z,15.90
2023-01-11T20:30:45.978Z,17.00
2023-01-11T20:32:50.322Z,20.83
2023-01-11T20:34:54.107Z,17.00
2023-01-11T20:36:57.090Z,20.15
2023-01-11T20:39:00.050Z,14.55
2023-01-11T20:41:08.497Z,14.15
2023-01-11T20:43:11.573Z,11.25
2023-01-11T20:45:14.570Z,10.85
2023-01-11T20:47:17.424Z,9.40
2023-01-11T20:49:22.858Z,19.63
2023-01-11T20:51:25.894Z,13.02
2023-01-11T20:53:28.960Z,8.30
2023-01-11T20:55:31.812Z,13.00
2023-01-11T20:57:34.690Z,13.80
2023-01-11T20:59:37.611Z,23.83
2023-01-11T21:01:40.791Z,16.42
2023-01-11T21:03:43.612Z,11.80
2023-01-11T21:05:49.099Z,12.80
2023-01-11T21:07:53.293Z,10.07
2023-01-11T21:09:56.212Z,8.57
2023-01-11T21:11:59.299Z,11.00
2023-01-11T21:14:04.476Z,15.18
2023-01-11T21:16:08.994Z,9.10
2023-01-11T21:18:11.989Z,9.82
2023-01-11T21:20:14.971Z,9.50
2023-01-11T21:22:19.451Z,9.48
2023-01-11T21:24:22.309Z,8.40
2023-01-11T21:26:26.077Z,10.93
2023-01-11T21:28:28.948Z,10.45
2023-01-11T21:30:31.816Z,10.30
2023-01-11T21:32:34.650Z,11.18
2023-01-11T21:34:37.610Z,10.80
2023-01-11T21:36:40.916Z,8.63
2023-01-11T21:38:45.410Z,10.55
2023-01-11T21:40:48.215Z,9.80
2023-01-11T21:42:51.256Z,8.75
2023-01-11T21:44:54.091Z,8.05
2023-01-11T21:46:57.339Z,11.02
2023-01-11T21:49:00.584Z,8.02
2023-01-11T21:51:03.809Z,9.32
2023-01-11T21:53:06.697Z,11.05
2023-01-11T21:55:11.369Z,10.05
2023-01-11T21:57:14.209Z,9.30
2023-01-11T21:59:17.611Z,6.32
2023-01-11T22:01:24.055Z,8.98
2023-01-11T22:03:27.940Z,8.93
2023-01-11T22:05:32.090Z,9.18
2023-01-11T22:07:36.713Z,12.05
2023-01-11T22:09:46.624Z,10.63
2023-01-11T22:11:57.771Z,10.32
2023-01-11T22:14:02.748Z,11.15
2023-01-11T22:16:07.751Z,7.43
2023-01-11T22:18:12.075Z,8.50
2023-01-11T22:20:17.826Z,9.20
2023-01-11T22:24:23.270Z,14.60
2023-01-11T22:26:27.175Z,10.55
2023-01-11T22:28:31.732Z,8.85
2023-01-11T22:30:34.591Z,11.93
2023-01-11T22:32:37.853Z,10.50
2023-01-11T22:34:40.874Z,10.40
2023-01-11T22:36:44.516Z,8.90
2023-01-11T22:38:47.410Z,12.10
2023-01-11T22:40:50.320Z,12.95
2023-01-11T22:42:53.110Z,14.88
2023-01-11T22:44:58.705Z,8.45
2023-01-11T22:49:06.684Z,9.55
2023-01-11T22:51:10.654Z,12.55
2023-01-11T22:53:13.531Z,10.85
2023-01-11T22:55:16.421Z,10.00
2023-01-11T22:57:19.330Z,11.40
2023-01-11T22:59:22.133Z,15.27
2023-01-11T23:01:27.836Z,11.57
2023-01-11T23:03:30.690Z,12.63
2023-01-11T23:05:33.816Z,9.40
2023-01-11T23:07:36.863Z,6.93
2023-01-11T23:09:39.771Z,9.40
2023-01-11T23:12:01.131Z,14.32
2023-01-11T23:14:05.270Z,13.35
2023-01-11T23:16:08.593Z,9.57
2023-01-11T23:18:13.150Z,8.75
2023-01-11T23:20:16.274Z,18.00
2023-01-11T23:22:19.128Z,13.20
2023-01-11T23:24:22.554Z,9.93
2023-01-11T23:26:25.489Z,12.23
2023-01-11T23:28:30.187Z,12.80
2023-01-11T23:30:33.131Z,14.57
2023-01-11T23:32:35.973Z,14.07
2023-01-11T23:34:40.430Z,11.38
2023-01-11T23:36:43.815Z,11.88
2023-01-11T23:38:47.050Z,12.27
2023-01-11T23:41:08.250Z,20.10
2023-01-11T23:43:11.192Z,10.90
2023-01-11T23:45:14.235Z,12.13
2023-01-11T23:47:25.301Z,9.15
2023-01-11T23:49:28.963Z,9.73
2023-01-11T23:51:33.830Z,7.53
2023-01-11T23:53:36.712Z,10.27
2023-01-11T23:55:40.524Z,12.57
2023-01-11T23:58:03.252Z,8.48
